createdAt,value
2022-10-11T00:00:22.443Z,11.74
2022-10-11T00:03:10.178Z,11.94
2022-10-11T00:05:38.101Z,12.01
2022-10-11T00:08:06.124Z,11.30
2022-10-11T00:10:33.884Z,10.45
2022-10-11T00:13:01.735Z,9.77
2022-10-11T00:15:29.534Z,9.24
2022-10-11T00:17:57.268Z,8.83
2022-10-11T00:20:25.132Z,8.94
2022-10-11T00:22:53.120Z,10.55
2022-10-11T00:25:21.480Z,11.73
2022-10-11T00:27:49.413Z,12.29
2022-10-11T00:30:17.414Z,12.24
2022-10-11T00:32:45.134Z,11.25
2022-10-11T00:35:12.956Z,10.32
2022-10-11T00:37:40.670Z,9.73
2022-10-11T00:40:13.202Z,10.99
2022-10-11T00:42:41.018Z,12.62
2022-10-11T00:45:27.067Z,13.33
2022-10-11T00:47:56.333Z,12.83
2022-10-11T00:50:24.143Z,11.57
2022-10-11T00:52:57.924Z,10.57
2022-10-11T00:55:27.000Z,9.88
2022-10-11T00:57:54.928Z,9.58
2022-10-11T01:00:23.062Z,10.76
2022-10-11T01:02:50.865Z,12.12
2022-10-11T01:05:29.217Z,13.01
2022-10-11T01:08:00.979Z,12.99
2022-10-11T01:10:28.767Z,11.71
2022-10-11T01:13:36.172Z,10.70
2022-10-11T01:16:32.353Z,9.82
2022-10-11T01:19:43.268Z,10.91
2022-10-11T01:22:43.559Z,11.74
2022-10-11T01:25:39.526Z,12.97
2022-10-11T01:28:38.029Z,13.40
2022-10-11T01:31:19.751Z,12.00
2022-10-11T01:34:11.366Z,10.82
2022-10-11T01:36:49.991Z,9.95
2022-10-11T01:39:39.156Z,9.62
2022-10-11T01:42:07.784Z,10.79
2022-10-11T01:44:35.507Z,11.98
2022-10-11T01:47:03.371Z,12.72
2022-10-11T01:49:31.133Z,12.84
2022-10-11T01:52:01.075Z,11.84
2022-10-11T01:55:08.286Z,10.70
2022-10-11T01:58:05.107Z,9.84
2022-10-11T02:00:51.788Z,10.20
2022-10-11T02:04:01.995Z,11.74
2022-10-11T02:06:52.844Z,13.52
2022-10-11T02:09:31.523Z,12.91
2022-10-11T02:12:08.556Z,11.49
2022-10-11T02:14:40.615Z,10.50
2022-10-11T02:17:18.015Z,9.83
2022-10-11T02:19:49.558Z,10.12
2022-10-11T02:22:28.438Z,11.04
2022-10-11T02:24:58.085Z,11.46
2022-10-11T02:27:27.887Z,11.63
2022-10-11T02:29:58.492Z,11.78
2022-10-11T02:32:26.394Z,11.95
2022-10-11T02:34:55.971Z,12.17
2022-10-11T02:37:43.137Z,12.24
2022-10-11T02:40:12.545Z,11.39
2022-10-11T02:42:45.445Z,10.42
2022-10-11T02:45:24.252Z,9.61
2022-10-11T02:47:52.395Z,9.32
2022-10-11T02:50:21.896Z,9.97
2022-10-11T02:52:49.659Z,10.43
2022-10-11T02:55:17.526Z,10.64
2022-10-11T02:57:45.619Z,10.80
2022-10-11T03:00:14.590Z,10.94
2022-10-11T03:02:42.314Z,11.08
2022-10-11T03:05:10.017Z,11.19
2022-10-11T03:07:37.776Z,11.28
2022-10-11T03:10:06.283Z,11.35
2022-10-11T03:12:34.126Z,11.43
2022-10-11T03:15:02.396Z,11.19
2022-10-11T03:17:37.635Z,10.27
2022-10-11T03:20:06.580Z,9.43
2022-10-11T03:22:34.697Z,8.82
2022-10-11T03:25:04.358Z,8.34
2022-10-11T03:27:33.609Z,7.95
2022-10-11T03:30:01.470Z,7.62
2022-10-11T03:32:29.439Z,7.32
2022-10-11T03:34:57.152Z,7.05
2022-10-11T03:37:25.582Z,6.89
2022-10-11T03:39:53.665Z,7.79
2022-10-11T03:42:21.511Z,8.65
2022-10-11T03:44:52.030Z,9.10
2022-10-11T03:47:20.117Z,9.40
2022-10-11T03:49:47.809Z,9.63
2022-10-11T03:52:15.544Z,9.86
2022-10-11T03:54:43.258Z,10.05
2022-10-11T03:57:10.965Z,10.23
2022-10-11T03:59:38.718Z,10.39
2022-10-11T04:02:06.514Z,10.55
2022-10-11T04:04:34.502Z,10.69
2022-10-11T04:07:02.252Z,10.82
2022-10-11T04:09:29.990Z,10.77
2022-10-11T04:11:57.768Z,10.27
2022-10-11T04:14:26.261Z,9.36
2022-10-11T04:16:56.401Z,8.58
2022-10-11T04:19:27.710Z,8.43
2022-10-11T04:21:55.462Z,9.08
2022-10-11T04:24:23.231Z,10.43
2022-10-11T04:26:50.973Z,11.77
2022-10-11T04:29:18.658Z,12.66
2022-10-11T04:31:46.336Z,12.30
2022-10-11T04:34:14.147Z,10.96
2022-10-11T04:36:43.578Z,9.86
2022-10-11T04:39:14.001Z,9.04
2022-10-11T04:41:41.656Z,8.42
2022-10-11T04:44:09.311Z,7.93
2022-10-11T04:46:37.025Z,7.52
2022-10-11T04:49:04.751Z,7.16
2022-10-11T04:51:33.873Z,7.64
2022-10-11T04:54:01.550Z,8.75
2022-10-11T04:56:30.738Z,9.40
2022-10-11T04:58:58.424Z,10.67
2022-10-11T05:01:26.202Z,12.06
2022-10-11T05:03:53.914Z,12.77
2022-10-11T05:06:21.618Z,13.02
2022-10-11T05:08:49.419Z,11.94
2022-10-11T05:11:17.523Z,10.63
2022-10-11T05:13:45.543Z,9.67
2022-10-11T05:16:14.086Z,9.09
2022-10-11T05:18:42.064Z,9.26
2022-10-11T05:21:22.291Z,9.95
2022-10-11T05:23:50.672Z,10.48
2022-10-11T05:26:19.435Z,10.80
2022-10-11T05:28:47.425Z,11.05
2022-10-11T05:31:16.364Z,11.35
2022-10-11T05:33:44.136Z,11.69
2022-10-11T05:36:12.007Z,12.06
2022-10-11T05:38:39.873Z,12.44
2022-10-11T05:41:09.315Z,12.73
2022-10-11T05:43:37.196Z,12.81
2022-10-11T05:46:05.889Z,12.28
2022-10-11T05:48:33.852Z,11.64
2022-10-11T05:51:04.309Z,11.21
2022-10-11T05:53:32.244Z,10.96
2022-10-11T05:56:00.158Z,10.85
2022-10-11T05:58:28.152Z,10.78
2022-10-11T06:00:57.039Z,11.28
2022-10-11T06:03:24.905Z,11.95
2022-10-11T06:05:56.741Z,12.49
2022-10-11T06:08:24.956Z,12.86
2022-10-11T06:10:52.618Z,13.09
2022-10-11T06:13:20.368Z,13.19
2022-10-11T06:15:48.057Z,13.39
2022-10-11T06:18:15.760Z,13.50
2022-10-11T06:20:43.493Z,13.67
2022-10-11T06:23:11.137Z,13.72
2022-10-11T06:25:38.856Z,13.02
2022-10-11T06:28:06.786Z,12.20
2022-10-11T06:30:34.651Z,12.29
2022-10-11T06:33:04.847Z,12.78
2022-10-11T06:35:33.031Z,13.27
2022-10-11T06:38:00.976Z,13.67
2022-10-11T06:40:29.446Z,13.85
2022-10-11T06:42:57.180Z,14.04
2022-10-11T06:45:24.876Z,14.28
2022-10-11T06:47:52.577Z,14.57
2022-10-11T06:50:40.642Z,14.32
2022-10-11T06:53:08.760Z,13.53
2022-10-11T06:55:36.439Z,13.01
2022-10-11T06:58:04.136Z,13.47
2022-10-11T07:00:31.889Z,15.02
2022-10-11T07:03:00.309Z,15.51
2022-10-11T07:05:29.504Z,14.64
2022-10-11T07:07:57.178Z,13.81
2022-10-11T07:10:25.071Z,13.16
2022-10-11T07:12:52.826Z,12.73
2022-10-11T07:15:20.537Z,13.37
2022-10-11T07:17:48.330Z,14.49
2022-10-11T07:20:16.047Z,14.89
2022-10-11T07:22:43.755Z,14.40
2022-10-11T07:25:11.422Z,13.81
2022-10-11T07:27:39.199Z,13.46
2022-10-11T07:30:07.908Z,13.95
2022-10-11T07:32:35.669Z,14.59
2022-10-11T07:35:03.496Z,15.11
2022-10-11T07:37:31.321Z,15.23
2022-10-11T07:39:59.088Z,14.77
2022-10-11T07:42:27.035Z,14.39
2022-10-11T07:44:54.927Z,14.18
2022-10-11T07:47:22.614Z,14.05
2022-10-11T07:49:50.349Z,13.93
2022-10-11T07:52:18.012Z,13.73
2022-10-11T07:54:49.257Z,13.59
2022-10-11T07:57:16.963Z,13.58
2022-10-11T07:59:49.279Z,13.57
2022-10-11T08:02:17.943Z,13.55
2022-10-11T08:04:45.663Z,13.68
2022-10-11T08:07:13.379Z,14.11
2022-10-11T08:09:41.235Z,15.16
2022-10-11T08:12:10.092Z,16.00
2022-10-11T08:14:37.869Z,16.00
2022-10-11T08:17:05.743Z,15.59
2022-10-11T08:19:33.528Z,15.35
2022-10-11T08:22:01.337Z,15.16
2022-10-11T08:24:29.125Z,14.98
2022-10-11T08:26:57.396Z,14.88
2022-10-11T08:29:25.116Z,14.80
2022-10-11T08:31:52.889Z,14.75
2022-10-11T08:34:20.554Z,14.73
2022-10-11T08:36:48.706Z,14.71
2022-10-11T08:39:16.486Z,14.70
2022-10-11T08:41:50.301Z,14.72
2022-10-11T08:47:43.267Z,14.66
2022-10-11T08:50:19.889Z,14.57
2022-10-11T08:52:57.864Z,14.51
2022-10-11T08:55:32.261Z,14.54
2022-10-11T08:57:59.958Z,14.59
2022-10-11T09:00:31.125Z,14.63
2022-10-11T09:03:22.506Z,14.79
2022-10-11T09:06:13.398Z,15.69
2022-10-11T09:09:02.111Z,16.74
2022-10-11T09:11:45.285Z,17.13
2022-10-11T09:14:38.223Z,16.79
2022-10-11T09:17:21.869Z,16.42
2022-10-11T09:20:08.969Z,16.19
2022-10-11T09:22:51.742Z,15.95
2022-10-11T09:25:35.470Z,15.76
2022-10-11T09:28:21.827Z,15.57
2022-10-11T09:30:52.858Z,15.37
2022-10-11T09:33:24.754Z,15.23
2022-10-11T09:35:52.750Z,15.08
2022-10-11T09:38:40.269Z,14.92
2022-10-11T09:41:18.286Z,14.77
2022-10-11T09:43:50.102Z,15.21
2022-10-11T09:46:40.889Z,15.93
2022-10-11T09:49:12.957Z,16.51
2022-10-11T09:51:43.383Z,16.87
2022-10-11T09:54:11.148Z,17.10
2022-10-11T09:56:43.662Z,17.32
2022-10-11T09:59:28.804Z,17.55
2022-10-11T10:02:15.099Z,17.51
2022-10-11T10:04:56.066Z,16.74
2022-10-11T10:07:23.854Z,16.02
2022-10-11T10:09:52.825Z,15.55
2022-10-11T10:12:30.362Z,15.53
2022-10-11T10:15:14.342Z,16.26
2022-10-11T10:17:49.785Z,17.00
2022-10-11T10:20:32.455Z,17.50
2022-10-11T10:23:25.158Z,17.90
2022-10-11T10:25:54.633Z,18.10
2022-10-11T10:28:24.998Z,17.68
2022-10-11T10:30:56.302Z,17.10
2022-10-11T10:33:26.506Z,16.66
2022-10-11T10:35:56.229Z,16.31
2022-10-11T10:38:32.830Z,16.33
2022-10-11T10:41:10.972Z,17.10
2022-10-11T10:43:41.113Z,17.73
2022-10-11T10:46:53.346Z,18.24
2022-10-11T10:52:50.233Z,17.59
2022-10-11T10:55:44.674Z,17.17
2022-10-11T10:59:03.525Z,16.86
2022-10-11T11:01:33.704Z,17.38
2022-10-11T11:04:19.935Z,18.21
2022-10-11T11:06:54.893Z,18.85
2022-10-11T11:09:35.544Z,18.99
2022-10-11T11:12:15.914Z,18.50
2022-10-11T11:15:04.469Z,18.07
2022-10-11T11:17:51.893Z,17.77
2022-10-11T11:21:00.811Z,17.55
2022-10-11T11:24:06.258Z,17.40
2022-10-11T11:26:44.404Z,17.29
2022-10-11T11:29:55.659Z,17.53
2022-10-11T11:32:49.424Z,18.49
2022-10-11T11:35:28.711Z,18.85
2022-10-11T11:38:06.346Z,18.41
2022-10-11T11:40:39.027Z,17.97
2022-10-11T11:43:26.657Z,17.67
2022-10-11T11:46:01.590Z,17.45
2022-10-11T11:48:29.300Z,17.33
2022-10-11T11:51:09.059Z,17.20
2022-10-11T11:54:01.340Z,17.06
2022-10-11T11:56:59.359Z,16.91
2022-10-11T11:59:29.009Z,16.93
2022-10-11T12:02:29.086Z,17.62
2022-10-11T12:04:57.180Z,19.42
2022-10-11T12:07:25.911Z,20.05
2022-10-11T12:10:29.296Z,19.48
2022-10-11T12:13:12.407Z,18.60
2022-10-11T12:15:40.169Z,18.06
2022-10-11T12:18:15.592Z,17.73
2022-10-11T12:20:43.716Z,17.49
2022-10-11T12:23:30.070Z,17.32
2022-10-11T12:26:29.214Z,17.15
2022-10-11T12:29:20.753Z,18.26
2022-10-11T12:31:59.347Z,19.45
2022-10-11T12:34:37.941Z,20.14
2022-10-11T12:37:17.781Z,19.57
2022-10-11T12:39:55.952Z,18.85
2022-10-11T12:42:29.061Z,18.44
2022-10-11T12:45:19.574Z,18.20
2022-10-11T12:48:01.133Z,18.01
2022-10-11T12:50:34.856Z,17.80
2022-10-11T12:53:12.314Z,17.54
2022-10-11T12:55:48.890Z,17.25
2022-10-11T12:58:45.362Z,17.46
2022-10-11T13:01:22.738Z,18.89
2022-10-11T13:04:27.043Z,19.86
2022-10-11T13:07:06.890Z,20.11
2022-10-11T13:09:40.060Z,19.37
2022-10-11T13:12:21.264Z,18.69
2022-10-11T13:15:21.414Z,18.18
2022-10-11T13:17:50.452Z,17.68
2022-10-11T13:20:21.912Z,17.34
2022-10-11T13:22:52.897Z,17.10
2022-10-11T13:25:24.245Z,17.32
2022-10-11T13:27:53.943Z,18.44
2022-10-11T13:30:32.784Z,18.94
2022-10-11T13:33:01.042Z,18.43
2022-10-11T13:35:37.819Z,17.85
2022-10-11T13:38:23.300Z,17.34
2022-10-11T13:40:53.651Z,16.92
2022-10-11T13:43:24.562Z,16.64
2022-10-11T13:46:06.566Z,16.55
2022-10-11T13:48:40.139Z,17.50
2022-10-11T13:51:27.730Z,18.38
2022-10-11T13:54:10.541Z,18.88
2022-10-11T13:56:49.932Z,19.25
2022-10-11T13:59:23.319Z,19.49
2022-10-11T14:01:56.687Z,19.70
2022-10-11T14:04:29.569Z,19.81
2022-10-11T14:07:00.236Z,19.35
2022-10-11T14:09:33.192Z,18.62
2022-10-11T14:12:25.901Z,18.04
2022-10-11T14:14:53.596Z,17.52
2022-10-11T14:17:32.141Z,17.22
2022-10-11T14:20:39.473Z,17.90
2022-10-11T14:23:07.385Z,19.57
2022-10-11T14:25:35.175Z,20.19
2022-10-11T14:28:02.964Z,19.88
2022-10-11T14:30:31.765Z,18.98
2022-10-11T14:33:01.271Z,18.25
2022-10-11T14:35:31.321Z,17.71
2022-10-11T14:37:59.437Z,17.32
2022-10-11T14:40:31.783Z,17.85
2022-10-11T14:42:59.533Z,19.06
2022-10-11T14:45:28.413Z,19.66
2022-10-11T14:47:56.187Z,19.80
2022-10-11T14:50:42.305Z,19.86
2022-10-11T14:53:10.728Z,19.95
2022-10-11T14:55:39.071Z,19.94
2022-10-11T14:58:07.078Z,19.33
2022-10-11T15:00:35.744Z,18.51
2022-10-11T15:03:04.906Z,17.85
2022-10-11T15:05:34.366Z,17.34
2022-10-11T15:08:04.175Z,17.35
2022-10-11T15:10:39.996Z,18.34
2022-10-11T15:13:08.268Z,18.92
2022-10-11T15:15:37.671Z,19.21
2022-10-11T15:18:06.555Z,19.39
2022-10-11T15:20:40.329Z,19.54
2022-10-11T15:23:09.835Z,19.68
2022-10-11T15:25:39.382Z,19.78
2022-10-11T15:28:08.045Z,19.83
2022-10-11T15:30:40.948Z,19.86
2022-10-11T15:33:09.254Z,19.88
2022-10-11T15:35:36.992Z,19.82
2022-10-11T15:38:04.734Z,19.10
2022-10-11T15:40:35.567Z,18.19
2022-10-11T15:43:03.769Z,17.41
2022-10-11T15:45:31.554Z,17.24
2022-10-11T15:47:59.463Z,17.74
2022-10-11T15:50:39.715Z,18.02
2022-10-11T15:53:19.359Z,18.14
2022-10-11T15:55:55.660Z,18.08
2022-10-11T15:58:37.623Z,18.12
2022-10-11T16:01:14.498Z,18.16
2022-10-11T16:03:42.994Z,18.12
2022-10-11T16:06:11.255Z,18.10
2022-10-11T16:08:39.408Z,18.14
2022-10-11T16:11:07.676Z,18.14
2022-10-11T16:13:35.804Z,17.89
2022-10-11T16:16:05.945Z,17.06
2022-10-11T16:18:35.554Z,16.34
2022-10-11T16:21:09.627Z,15.81
2022-10-11T16:23:38.273Z,16.23
2022-10-11T16:26:08.926Z,16.78
2022-10-11T16:28:37.942Z,17.14
2022-10-11T16:31:20.794Z,17.27
2022-10-11T16:33:48.975Z,17.40
2022-10-11T16:36:40.569Z,17.47
2022-10-11T16:39:14.556Z,17.51
2022-10-11T16:41:42.845Z,17.58
2022-10-11T16:44:15.828Z,17.62
2022-10-11T16:46:48.263Z,17.47
2022-10-11T16:49:22.404Z,16.69
2022-10-11T16:51:51.504Z,15.89
2022-10-11T16:54:20.745Z,15.29
2022-10-11T16:56:49.676Z,14.85
2022-10-11T16:59:17.565Z,14.96
2022-10-11T17:01:46.090Z,15.89
2022-10-11T17:04:13.896Z,16.44
2022-10-11T17:06:43.995Z,16.69
2022-10-11T17:09:11.902Z,16.84
2022-10-11T17:11:40.680Z,17.03
2022-10-11T17:14:08.651Z,16.92
2022-10-11T17:16:36.375Z,16.19
2022-10-11T17:19:04.326Z,15.43
2022-10-11T17:21:32.144Z,14.86
2022-10-11T17:23:59.917Z,14.55
2022-10-11T17:26:27.982Z,15.14
2022-10-11T17:28:59.533Z,16.03
2022-10-11T17:31:28.220Z,16.68
2022-10-11T17:33:59.806Z,16.87
2022-10-11T17:36:31.809Z,16.86
2022-10-11T17:39:00.338Z,16.81
2022-10-11T17:41:31.839Z,16.78
2022-10-11T17:44:01.406Z,16.76
2022-10-11T17:46:32.663Z,16.76
2022-10-11T17:49:02.009Z,16.51
2022-10-11T17:51:29.722Z,15.66
2022-10-11T17:53:57.676Z,14.88
2022-10-11T17:56:29.685Z,14.29
2022-10-11T17:59:00.303Z,13.81
2022-10-11T18:01:28.685Z,13.42
2022-10-11T18:03:59.626Z,13.08
2022-10-11T18:06:30.319Z,12.76
2022-10-11T18:09:00.601Z,12.99
2022-10-11T18:11:28.524Z,14.23
2022-10-11T18:13:56.443Z,14.88
2022-10-11T18:16:27.163Z,15.12
2022-10-11T18:18:55.071Z,15.34
2022-10-11T18:21:31.370Z,15.71
2022-10-11T18:24:03.550Z,16.11
2022-10-11T18:26:31.477Z,15.72
2022-10-11T18:28:59.805Z,14.74
2022-10-11T18:31:29.367Z,13.93
2022-10-11T18:33:57.464Z,13.27
2022-10-11T18:36:27.865Z,12.74
2022-10-11T18:38:58.112Z,12.30
2022-10-11T18:41:31.954Z,11.91
2022-10-11T18:44:02.611Z,11.56
2022-10-11T18:46:30.631Z,11.24
2022-10-11T18:49:02.109Z,10.95
2022-10-11T18:51:35.376Z,10.67
2022-10-11T18:54:04.380Z,10.41
2022-10-11T18:56:32.717Z,10.48
2022-10-11T18:59:00.919Z,11.53
2022-10-11T19:01:34.401Z,12.46
2022-10-11T19:04:03.545Z,13.09
2022-10-11T19:06:35.293Z,13.55
2022-10-11T19:09:11.398Z,13.96
2022-10-11T19:11:39.604Z,14.28
2022-10-11T19:14:11.548Z,14.50
2022-10-11T19:16:42.655Z,14.67
2022-10-11T19:19:11.119Z,14.64
2022-10-11T19:21:39.142Z,13.77
2022-10-11T19:24:07.401Z,12.76
2022-10-11T19:26:38.760Z,12.00
2022-10-11T19:29:09.957Z,11.40
2022-10-11T19:31:44.627Z,10.92
2022-10-11T19:34:12.530Z,10.49
2022-10-11T19:36:42.733Z,10.14
2022-10-11T19:39:14.804Z,9.80
2022-10-11T19:41:43.178Z,9.49
2022-10-11T19:44:12.350Z,9.59
2022-10-11T19:46:56.957Z,10.84
2022-10-11T19:49:27.431Z,11.94
2022-10-11T19:51:55.814Z,12.50
2022-10-11T19:54:23.987Z,12.87
2022-10-11T19:56:52.699Z,13.18
2022-10-11T19:59:20.540Z,13.47
2022-10-11T20:01:52.724Z,13.70
2022-10-11T20:07:09.181Z,12.21
2022-10-11T20:09:37.035Z,11.38
2022-10-11T20:12:04.854Z,10.71
2022-10-11T20:14:32.548Z,10.17
2022-10-11T20:17:00.586Z,9.70
2022-10-11T20:19:31.043Z,9.25
2022-10-11T20:22:00.609Z,9.29
2022-10-11T20:24:33.106Z,10.38
2022-10-11T20:27:03.771Z,11.26
2022-10-11T20:29:31.644Z,11.83
2022-10-11T20:31:59.736Z,12.18
2022-10-11T20:34:27.854Z,12.39
2022-10-11T20:36:56.057Z,12.55
2022-10-11T20:39:23.888Z,12.69
2022-10-11T20:41:51.625Z,12.51
2022-10-11T20:44:19.388Z,11.54
2022-10-11T20:46:47.086Z,10.63
2022-10-11T20:49:14.871Z,9.96
2022-10-11T20:51:42.724Z,9.42
2022-10-11T20:54:11.913Z,8.95
2022-10-11T20:56:40.385Z,8.56
2022-10-11T20:59:08.361Z,8.22
2022-10-11T21:01:38.940Z,7.92
2022-10-11T21:04:07.999Z,7.66
2022-10-11T21:06:35.780Z,8.02
2022-10-11T21:09:03.573Z,9.27
2022-10-11T21:11:33.659Z,10.18
2022-10-11T21:14:03.715Z,10.78
2022-10-11T21:16:32.184Z,11.17
2022-10-11T21:19:00.831Z,11.48
2022-10-11T21:21:29.187Z,11.76
2022-10-11T21:24:01.495Z,11.95
2022-10-11T21:26:29.685Z,11.32
2022-10-11T21:28:59.352Z,10.24
2022-10-11T21:31:32.717Z,9.35
2022-10-11T21:34:02.751Z,8.69
2022-10-11T21:36:30.560Z,8.20
2022-10-11T21:38:58.328Z,7.78
2022-10-11T21:41:26.766Z,7.50
2022-10-11T21:43:54.519Z,8.81
2022-10-11T21:46:32.526Z,10.90
2022-10-11T21:49:09.904Z,11.57
2022-10-11T21:51:37.663Z,11.55
2022-10-11T21:54:05.783Z,10.70
2022-10-11T21:56:33.489Z,9.67
2022-10-11T21:59:01.217Z,8.89
2022-10-11T22:01:29.003Z,8.30
2022-10-11T22:03:56.818Z,7.86
2022-10-11T22:06:24.569Z,7.49
2022-10-11T22:08:54.548Z,7.14
2022-10-11T22:11:22.324Z,6.82
2022-10-11T22:13:50.162Z,6.71
2022-10-11T22:16:18.095Z,8.46
2022-10-11T22:18:49.296Z,10.81
2022-10-11T22:21:23.217Z,12.11
2022-10-11T22:23:52.103Z,12.37
2022-10-11T22:26:27.737Z,11.12
2022-10-11T22:28:59.615Z,9.79
2022-10-11T22:31:31.440Z,8.86
2022-10-11T22:34:00.300Z,8.16
2022-10-11T22:36:30.644Z,7.64
2022-10-11T22:38:59.034Z,7.17
2022-10-11T22:41:26.813Z,7.68
2022-10-11T22:43:54.459Z,9.70
2022-10-11T22:46:22.339Z,10.52
2022-10-11T22:48:50.185Z,11.33
2022-10-11T22:51:17.854Z,11.56
2022-10-11T22:53:45.646Z,10.31
2022-10-11T22:56:13.606Z,9.14
2022-10-11T22:58:41.353Z,8.28
2022-10-11T23:01:10.967Z,7.64
2022-10-11T23:03:38.847Z,7.13
2022-10-11T23:06:06.738Z,6.69
2022-10-11T23:08:34.544Z,6.29
2022-10-11T23:11:06.490Z,5.95
2022-10-11T23:13:34.781Z,5.64
2022-10-11T23:16:08.042Z,6.74
2022-10-11T23:18:36.048Z,8.54
2022-10-11T23:21:04.248Z,9.13
2022-10-11T23:23:32.026Z,9.45
2022-10-11T23:26:08.416Z,9.76
2022-10-11T23:28:36.362Z,9.66
2022-10-11T23:31:17.585Z,8.72
2022-10-11T23:33:45.866Z,7.76
2022-10-11T23:36:19.164Z,7.11
2022-10-11T23:38:54.299Z,6.57
2022-10-11T23:41:23.956Z,6.15
2022-10-11T23:43:51.679Z,5.81
2022-10-11T23:46:19.514Z,5.54
2022-10-11T23:48:47.330Z,5.27
2022-10-11T23:51:15.330Z,5.00
2022-10-11T23:53:43.025Z,5.06
2022-10-11T23:56:11.616Z,6.37
2022-10-11T23:58:39.534Z,7.27
